createdAt,value
2022-12-06T00:01:35.269Z,4.88
2022-12-06T00:04:07.303Z,4.89
2022-12-06T00:06:39.846Z,4.95
2022-12-06T00:09:10.383Z,4.93
2022-12-06T00:11:38.860Z,4.90
2022-12-06T00:14:09.095Z,4.94
2022-12-06T00:16:37.946Z,4.85
2022-12-06T00:19:06.633Z,4.86
2022-12-06T00:21:37.515Z,4.95
2022-12-06T00:24:10.418Z,4.92
2022-12-06T00:26:40.437Z,4.93
2022-12-06T00:29:12.834Z,4.86
2022-12-06T00:31:41.886Z,4.90
2022-12-06T00:34:10.325Z,4.90
2022-12-06T00:36:41.634Z,4.85
2022-12-06T00:39:14.555Z,4.85
2022-12-06T00:41:44.038Z,4.89
2022-12-06T00:44:13.592Z,4.82
2022-12-06T00:46:42.350Z,4.84
2022-12-06T00:49:11.320Z,4.85
2022-12-06T00:51:40.459Z,4.77
2022-12-06T00:54:14.985Z,4.87
2022-12-06T00:56:43.651Z,4.84
2022-12-06T00:59:12.407Z,4.81
2022-12-06T01:01:43.001Z,4.80
2022-12-06T01:04:11.423Z,4.78
2022-12-06T01:06:40.068Z,4.82
2022-12-06T01:09:12.112Z,4.76
2022-12-06T01:11:40.647Z,4.83
2022-12-06T01:14:09.234Z,4.67
2022-12-06T01:16:37.743Z,4.69
2022-12-06T01:19:07.682Z,4.63
2022-12-06T01:21:36.085Z,4.67
2022-12-06T01:24:04.538Z,4.64
2022-12-06T01:26:36.498Z,4.62
2022-12-06T01:29:06.090Z,4.66
2022-12-06T01:31:38.686Z,4.60
2022-12-06T01:34:08.638Z,4.62
2022-12-06T01:36:37.071Z,4.60
2022-12-06T01:39:10.424Z,4.56
2022-12-06T01:41:41.026Z,4.49
2022-12-06T01:44:44.327Z,4.55
2022-12-06T01:47:16.961Z,4.51
2022-12-06T01:49:50.173Z,4.53
2022-12-06T01:52:19.360Z,4.52
2022-12-06T01:54:48.023Z,4.47
2022-12-06T01:57:18.616Z,4.55
2022-12-06T01:59:47.483Z,4.47
2022-12-06T02:02:16.151Z,4.54
2022-12-06T02:04:45.928Z,4.49
2022-12-06T02:07:14.762Z,4.46
2022-12-06T02:09:44.102Z,4.40
2022-12-06T02:12:14.691Z,4.43
2022-12-06T02:14:49.328Z,4.35
2022-12-06T02:17:29.986Z,4.42
2022-12-06T02:20:21.414Z,4.38
2022-12-06T02:23:25.203Z,4.37
2022-12-06T02:26:19.677Z,4.41
2022-12-06T02:29:52.193Z,4.44
2022-12-06T02:32:26.621Z,4.43
2022-12-06T02:35:01.518Z,4.33
2022-12-06T02:37:36.642Z,4.53
2022-12-06T02:40:08.915Z,4.35
2022-12-06T02:42:45.994Z,4.30
2022-12-06T02:45:18.725Z,4.15
2022-12-06T02:47:49.613Z,4.23
2022-12-06T02:50:22.235Z,4.26
2022-12-06T02:52:53.586Z,4.14
2022-12-06T02:55:24.668Z,4.13
2022-12-06T02:57:56.965Z,4.10
2022-12-06T03:00:45.349Z,4.28
2022-12-06T03:03:59.468Z,4.20
2022-12-06T03:06:53.527Z,4.30
2022-12-06T03:09:54.933Z,4.08
2022-12-06T03:12:32.576Z,4.08
2022-12-06T03:15:11.398Z,4.07
2022-12-06T03:17:47.513Z,4.04
2022-12-06T03:20:23.019Z,4.14
2022-12-06T03:22:54.821Z,4.04
2022-12-06T03:25:23.573Z,3.94
2022-12-06T03:27:55.224Z,3.91
2022-12-06T03:30:23.958Z,4.05
2022-12-06T03:32:52.824Z,3.91
2022-12-06T03:35:27.988Z,3.92
2022-12-06T03:38:04.620Z,4.02
2022-12-06T03:40:36.753Z,3.98
2022-12-06T03:43:06.364Z,3.93
2022-12-06T03:45:44.703Z,4.10
2022-12-06T03:48:17.365Z,4.17
2022-12-06T03:50:58.324Z,4.11
2022-12-06T03:53:27.273Z,4.17
2022-12-06T03:55:55.953Z,4.30
2022-12-06T03:58:24.278Z,4.17
2022-12-06T04:00:53.182Z,4.05
2022-12-06T04:03:21.587Z,4.05
2022-12-06T04:05:51.329Z,4.01
2022-12-06T04:08:19.762Z,4.03
2022-12-06T04:10:48.139Z,3.92
2022-12-06T04:13:19.725Z,3.94
2022-12-06T04:15:48.491Z,4.08
2022-12-06T04:18:17.054Z,4.00
2022-12-06T04:21:08.238Z,4.09
2022-12-06T04:23:38.777Z,4.00
2022-12-06T04:26:10.945Z,4.05
2022-12-06T04:28:57.460Z,4.05
2022-12-06T04:31:43.799Z,4.00
2022-12-06T04:34:30.362Z,4.21
2022-12-06T04:37:17.395Z,4.81
2022-12-06T04:39:46.162Z,4.96
2022-12-06T04:42:32.641Z,4.69
2022-12-06T04:45:01.169Z,4.79
2022-12-06T04:47:29.556Z,4.70
2022-12-06T04:49:58.332Z,4.44
2022-12-06T04:52:32.782Z,4.26
2022-12-06T04:55:04.095Z,4.21
2022-12-06T04:57:32.489Z,4.11
2022-12-06T05:00:01.166Z,4.01
2022-12-06T05:02:29.781Z,3.98
2022-12-06T05:04:58.204Z,3.97
2022-12-06T05:07:27.970Z,4.06
2022-12-06T05:09:56.505Z,4.00
2022-12-06T05:12:24.942Z,3.96
2022-12-06T05:14:53.292Z,4.00
2022-12-06T05:17:21.648Z,4.05
2022-12-06T05:19:49.997Z,4.11
2022-12-06T05:22:18.399Z,4.22
2022-12-06T05:24:48.209Z,4.12
2022-12-06T05:27:16.611Z,4.08
2022-12-06T05:29:44.964Z,4.11
2022-12-06T05:32:13.310Z,4.10
2022-12-06T05:34:41.694Z,4.19
2022-12-06T05:37:10.030Z,4.12
2022-12-06T05:39:38.507Z,4.15
2022-12-06T05:42:08.300Z,4.04
2022-12-06T05:44:36.896Z,4.03
2022-12-06T05:47:05.464Z,4.21
2022-12-06T05:49:34.192Z,4.02
2022-12-06T05:52:04.131Z,4.09
2022-12-06T05:54:32.852Z,4.16
2022-12-06T05:57:01.175Z,4.11
2022-12-06T05:59:31.144Z,4.06
2022-12-06T06:01:59.644Z,4.07
2022-12-06T06:04:28.103Z,4.18
2022-12-06T06:06:56.440Z,4.18
2022-12-06T06:09:27.317Z,4.23
2022-12-06T06:11:55.923Z,4.07
2022-12-06T06:14:24.545Z,4.10
2022-12-06T06:16:54.364Z,4.12
2022-12-06T06:19:24.326Z,4.10
2022-12-06T06:21:52.758Z,4.11
2022-12-06T06:24:21.080Z,4.17
2022-12-06T06:26:49.555Z,4.05
2022-12-06T06:29:17.911Z,4.12
2022-12-06T06:31:46.534Z,3.96
2022-12-06T06:34:16.340Z,3.96
2022-12-06T06:36:46.124Z,4.02
2022-12-06T06:39:14.868Z,4.08
2022-12-06T06:41:43.434Z,4.11
2022-12-06T06:44:11.960Z,4.05
2022-12-06T06:46:40.516Z,4.06
2022-12-06T06:49:08.996Z,4.06
2022-12-06T06:51:38.730Z,4.08
2022-12-06T06:54:07.373Z,4.06
2022-12-06T06:56:35.729Z,4.03
2022-12-06T06:59:04.193Z,4.10
2022-12-06T07:01:32.702Z,4.04
2022-12-06T07:04:01.258Z,4.02
2022-12-06T07:06:29.779Z,3.96
2022-12-06T07:08:59.551Z,4.06
2022-12-06T07:11:27.945Z,4.09
2022-12-06T07:13:56.309Z,4.04
2022-12-06T07:16:24.920Z,4.04
2022-12-06T07:18:53.399Z,4.03
2022-12-06T07:21:23.368Z,4.00
2022-12-06T07:23:52.072Z,4.05
2022-12-06T07:26:24.138Z,4.13
2022-12-06T07:28:53.138Z,4.08
2022-12-06T07:31:24.435Z,4.04
2022-12-06T07:33:55.402Z,4.00
2022-12-06T07:36:24.686Z,4.03
2022-12-06T07:38:55.556Z,3.97
2022-12-06T07:41:45.400Z,4.14
2022-12-06T07:44:40.979Z,4.05
2022-12-06T07:47:09.539Z,4.01
2022-12-06T07:49:38.003Z,3.95
2022-12-06T07:52:06.820Z,4.04
2022-12-06T07:54:35.252Z,4.07
2022-12-06T07:57:05.164Z,4.10
2022-12-06T07:59:33.947Z,4.13
2022-12-06T08:02:02.396Z,4.22
2022-12-06T08:04:31.105Z,4.13
2022-12-06T08:07:00.846Z,4.18
2022-12-06T08:09:29.217Z,4.13
2022-12-06T08:11:57.696Z,4.06
2022-12-06T08:14:27.497Z,4.10
2022-12-06T08:16:55.943Z,4.10
2022-12-06T08:19:24.405Z,4.04
2022-12-06T08:21:52.960Z,3.96
2022-12-06T08:24:21.810Z,3.98
2022-12-06T08:26:50.502Z,4.00
2022-12-06T08:29:19.208Z,4.05
2022-12-06T08:31:49.290Z,4.10
2022-12-06T08:34:18.224Z,4.04
2022-12-06T08:36:47.030Z,4.06
2022-12-06T08:39:16.026Z,4.09
2022-12-06T08:41:58.151Z,4.22
2022-12-06T08:44:29.066Z,4.21
2022-12-06T08:47:00.406Z,4.24
2022-12-06T08:49:31.183Z,4.23
2022-12-06T08:52:00.248Z,4.26
2022-12-06T08:54:29.157Z,4.19
2022-12-06T08:56:57.590Z,4.17
2022-12-06T08:59:25.969Z,4.19
2022-12-06T09:01:54.495Z,4.15
2022-12-06T09:04:24.632Z,4.20
2022-12-06T09:06:53.040Z,4.19
2022-12-06T09:09:21.584Z,4.17
2022-12-06T09:11:51.366Z,4.20
2022-12-06T09:14:22.265Z,4.28
2022-12-06T09:16:52.388Z,4.39
2022-12-06T09:19:21.391Z,4.42
2022-12-06T09:21:51.223Z,4.44
2022-12-06T09:24:20.706Z,4.49
2022-12-06T09:26:49.953Z,4.52
2022-12-06T09:29:20.197Z,4.36
2022-12-06T09:31:49.061Z,4.38
2022-12-06T09:34:18.083Z,4.21
2022-12-06T09:36:52.088Z,4.20
2022-12-06T09:39:25.754Z,4.36
2022-12-06T09:42:46.725Z,4.50
2022-12-06T09:45:28.333Z,4.31
2022-12-06T09:48:26.389Z,4.36
2022-12-06T09:51:08.459Z,4.30
2022-12-06T09:53:55.873Z,4.21
2022-12-06T09:56:32.579Z,4.22
2022-12-06T09:59:16.474Z,4.36
2022-12-06T10:02:02.263Z,4.45
2022-12-06T10:05:06.096Z,4.50
2022-12-06T10:07:45.348Z,4.66
2022-12-06T10:10:26.794Z,4.73
2022-12-06T10:13:05.428Z,4.85
2022-12-06T10:15:47.891Z,4.86
2022-12-06T10:18:49.085Z,4.93
2022-12-06T10:21:24.489Z,4.99
2022-12-06T10:24:11.913Z,5.01
2022-12-06T10:26:50.045Z,5.03
2022-12-06T10:29:29.165Z,5.09
2022-12-06T10:32:01.255Z,4.93
2022-12-06T10:34:49.360Z,5.01
2022-12-06T10:37:35.160Z,5.22
2022-12-06T10:40:12.541Z,5.17
2022-12-06T10:42:48.936Z,4.93
2022-12-06T10:45:42.283Z,5.04
2022-12-06T10:48:19.086Z,5.28
2022-12-06T10:50:55.649Z,5.23
2022-12-06T10:53:26.881Z,5.28
2022-12-06T10:56:02.564Z,5.30
2022-12-06T10:58:40.715Z,5.24
2022-12-06T11:01:17.196Z,5.28
2022-12-06T11:03:53.696Z,5.22
2022-12-06T11:06:32.257Z,5.07
2022-12-06T11:09:15.081Z,5.26
2022-12-06T11:11:45.565Z,5.26
2022-12-06T11:14:24.797Z,5.40
2022-12-06T11:16:58.903Z,5.38
2022-12-06T11:19:33.480Z,5.46
2022-12-06T11:22:12.500Z,5.59
2022-12-06T11:24:48.714Z,5.54
2022-12-06T11:27:23.898Z,5.42
2022-12-06T11:29:54.153Z,5.53
2022-12-06T11:32:22.737Z,5.51
2022-12-06T11:34:54.356Z,5.47
2022-12-06T11:37:25.776Z,5.52
2022-12-06T11:40:00.802Z,5.52
2022-12-06T11:42:29.901Z,5.38
2022-12-06T11:45:06.350Z,5.42
2022-12-06T11:47:35.012Z,5.43
2022-12-06T11:50:09.230Z,5.44
2022-12-06T11:52:45.210Z,5.60
2022-12-06T11:55:19.820Z,5.63
2022-12-06T11:57:54.004Z,5.58
2022-12-06T12:00:25.780Z,5.61
2022-12-06T12:02:57.130Z,5.57
2022-12-06T12:05:30.512Z,5.63
2022-12-06T12:08:02.402Z,5.64
2022-12-06T12:10:37.963Z,5.62
2022-12-06T12:13:40.605Z,5.62
2022-12-06T12:16:19.525Z,5.62
2022-12-06T12:18:56.691Z,5.67
2022-12-06T12:21:39.638Z,5.72
2022-12-06T12:25:17.383Z,5.74
2022-12-06T12:27:46.347Z,5.77
2022-12-06T12:30:23.341Z,5.72
2022-12-06T12:33:17.350Z,5.75
2022-12-06T12:35:48.911Z,5.81
2022-12-06T12:38:38.341Z,5.74
2022-12-06T12:41:27.493Z,5.76
2022-12-06T12:44:35.998Z,5.77
2022-12-06T12:46:55.850Z,5.71
2022-12-06T12:49:30.536Z,5.81
2022-12-06T12:51:59.954Z,5.69
2022-12-06T12:54:32.879Z,5.52
2022-12-06T12:57:05.961Z,5.50
2022-12-06T12:59:42.230Z,5.66
2022-12-06T13:02:23.576Z,6.34
2022-12-06T13:05:17.262Z,6.61
2022-12-06T13:07:50.314Z,6.50
2022-12-06T13:10:23.904Z,6.37
2022-12-06T13:12:57.733Z,6.17
2022-12-06T13:15:35.626Z,6.10
2022-12-06T13:18:12.725Z,6.12
2022-12-06T13:20:42.899Z,6.05
2022-12-06T13:23:18.329Z,6.01
2022-12-06T13:25:51.366Z,6.05
2022-12-06T13:28:27.445Z,6.06
2022-12-06T13:31:02.941Z,6.05
2022-12-06T13:33:35.119Z,6.03
2022-12-06T13:36:09.926Z,5.97
2022-12-06T13:38:40.801Z,5.95
2022-12-06T13:41:14.805Z,5.93
2022-12-06T13:43:52.139Z,5.90
2022-12-06T13:46:34.515Z,5.83
2022-12-06T13:49:25.829Z,5.84
2022-12-06T13:51:55.909Z,5.81
2022-12-06T13:54:32.783Z,5.79
2022-12-06T13:57:22.095Z,5.79
2022-12-06T13:59:50.553Z,5.80
2022-12-06T14:02:52.456Z,5.89
2022-12-06T14:06:06.122Z,5.87
2022-12-06T14:08:42.763Z,5.89
2022-12-06T14:11:22.912Z,5.75
2022-12-06T14:14:03.352Z,5.77
2022-12-06T14:16:38.136Z,5.87
2022-12-06T14:19:18.661Z,5.85
2022-12-06T14:21:56.089Z,5.84
2022-12-06T14:24:34.072Z,5.87
2022-12-06T14:27:08.437Z,5.85
2022-12-06T14:29:36.981Z,5.76
2022-12-06T14:32:05.814Z,5.70
2022-12-06T14:34:37.449Z,5.80
2022-12-06T14:37:20.729Z,5.83
2022-12-06T14:39:54.416Z,5.74
2022-12-06T14:42:41.368Z,5.79
2022-12-06T14:45:16.192Z,5.73
2022-12-06T14:47:46.349Z,5.75
2022-12-06T14:50:28.839Z,5.81
2022-12-06T14:53:07.162Z,5.71
2022-12-06T14:55:39.964Z,5.67
2022-12-06T14:58:17.789Z,5.82
2022-12-06T15:00:54.018Z,5.62
2022-12-06T15:03:29.664Z,5.60
2022-12-06T15:06:18.669Z,5.60
2022-12-06T15:08:53.663Z,5.55
2022-12-06T15:11:50.120Z,5.68
2022-12-06T15:14:22.130Z,5.60
2022-12-06T15:17:03.705Z,5.64
2022-12-06T15:19:35.382Z,5.61
2022-12-06T15:22:05.263Z,5.53
2022-12-06T15:24:33.667Z,5.52
2022-12-06T15:27:03.430Z,5.51
2022-12-06T15:29:31.793Z,5.49
2022-12-06T15:32:00.175Z,5.53
2022-12-06T15:34:31.298Z,5.54
2022-12-06T15:37:37.024Z,5.57
2022-12-06T15:39:49.740Z,5.49
2022-12-06T15:42:23.805Z,5.52
2022-12-06T15:44:52.699Z,5.50
2022-12-06T15:47:21.339Z,5.36
2022-12-06T15:49:51.830Z,5.40
2022-12-06T15:52:23.596Z,5.48
2022-12-06T15:54:52.364Z,5.48
2022-12-06T15:57:22.111Z,5.44
2022-12-06T15:59:50.436Z,5.35
2022-12-06T16:02:20.577Z,5.35
2022-12-06T16:04:51.021Z,5.34
2022-12-06T16:07:19.691Z,5.33
2022-12-06T16:09:48.585Z,5.26
2022-12-06T16:12:17.157Z,5.22
2022-12-06T16:14:46.936Z,5.15
2022-12-06T16:17:15.338Z,5.15
2022-12-06T16:20:01.416Z,5.09
2022-12-06T16:22:47.170Z,5.28
2022-12-06T16:25:15.545Z,5.26
2022-12-06T16:27:43.889Z,5.24
2022-12-06T16:30:15.152Z,5.21
2022-12-06T16:32:43.528Z,5.25
2022-12-06T16:35:11.951Z,5.29
2022-12-06T16:37:40.537Z,5.25
2022-12-06T16:40:16.931Z,5.28
2022-12-06T16:42:46.468Z,5.23
2022-12-06T16:45:17.365Z,5.30
2022-12-06T16:47:46.399Z,5.30
2022-12-06T16:50:22.596Z,5.33
2022-12-06T16:52:52.053Z,5.30
2022-12-06T16:55:20.705Z,5.32
2022-12-06T16:57:49.328Z,5.24
2022-12-06T17:00:20.094Z,5.21
2022-12-06T17:02:48.570Z,5.20
2022-12-06T17:05:21.808Z,5.10
2022-12-06T17:07:50.392Z,5.04
2022-12-06T17:10:20.140Z,5.12
2022-12-06T17:12:50.025Z,5.21
2022-12-06T17:15:22.797Z,5.33
2022-12-06T17:17:51.462Z,5.29
2022-12-06T17:20:21.054Z,5.16
2022-12-06T17:22:49.507Z,5.00
2022-12-06T17:25:18.156Z,5.02
2022-12-06T17:27:46.652Z,5.08
2022-12-06T17:30:18.032Z,5.17
2022-12-06T17:32:48.756Z,5.29
2022-12-06T17:35:17.460Z,5.28
2022-12-06T17:37:45.851Z,5.16
2022-12-06T17:40:15.396Z,5.17
2022-12-06T17:43:00.943Z,5.21
2022-12-06T17:45:29.421Z,5.13
2022-12-06T17:47:59.229Z,5.25
2022-12-06T17:50:27.834Z,5.26
2022-12-06T17:52:56.183Z,5.23
2022-12-06T17:55:24.580Z,5.29
2022-12-06T17:57:53.105Z,5.14
2022-12-06T18:00:22.361Z,5.14
2022-12-06T18:02:50.827Z,5.24
2022-12-06T18:05:20.940Z,5.33
2022-12-06T18:07:49.399Z,5.15
2022-12-06T18:10:18.201Z,5.13
2022-12-06T18:12:46.575Z,5.16
2022-12-06T18:15:28.953Z,5.20
2022-12-06T18:17:57.332Z,5.15
2022-12-06T18:20:27.184Z,5.14
2022-12-06T18:22:55.558Z,5.13
2022-12-06T18:25:23.966Z,5.17
2022-12-06T18:27:52.725Z,5.16
2022-12-06T18:30:21.369Z,5.13
2022-12-06T18:32:49.739Z,5.12
2022-12-06T18:35:18.219Z,5.12
2022-12-06T18:37:47.960Z,5.07
2022-12-06T18:40:16.459Z,5.16
2022-12-06T18:42:44.915Z,5.21
2022-12-06T18:45:13.541Z,5.26
2022-12-06T18:47:42.185Z,5.25
2022-12-06T18:50:10.829Z,5.29
2022-12-06T18:52:39.230Z,5.24
2022-12-06T18:55:10.266Z,5.24
2022-12-06T18:57:39.049Z,5.21
2022-12-06T19:00:09.567Z,5.18
2022-12-06T19:02:37.989Z,5.23
2022-12-06T19:05:07.968Z,5.20
2022-12-06T19:07:36.413Z,5.17
2022-12-06T19:10:05.589Z,5.25
2022-12-06T19:12:35.447Z,5.07
2022-12-06T19:15:04.012Z,5.18
2022-12-06T19:17:32.849Z,5.20
2022-12-06T19:20:01.667Z,5.12
2022-12-06T19:22:30.407Z,5.08
2022-12-06T19:24:58.833Z,5.08
2022-12-06T19:27:27.240Z,5.02
2022-12-06T19:29:57.112Z,5.04
2022-12-06T19:32:26.268Z,5.07
2022-12-06T19:34:56.105Z,5.08
2022-12-06T19:37:24.489Z,5.01
2022-12-06T19:39:52.869Z,5.03
2022-12-06T19:42:38.955Z,5.06
2022-12-06T19:45:10.689Z,5.04
2022-12-06T19:47:39.012Z,5.11
2022-12-06T19:50:09.688Z,5.04
2022-12-06T19:52:38.098Z,5.02
2022-12-06T19:55:07.038Z,4.99
2022-12-06T19:57:35.411Z,4.94
2022-12-06T20:00:04.657Z,4.96
2022-12-06T20:02:42.032Z,4.92
2022-12-06T20:05:10.749Z,4.95
2022-12-06T20:07:39.155Z,4.92
2022-12-06T20:10:09.908Z,4.89
2022-12-06T20:12:38.392Z,4.89
2022-12-06T20:15:08.111Z,4.81
2022-12-06T20:17:36.480Z,4.79
2022-12-06T20:20:08.562Z,4.89
2022-12-06T20:22:37.006Z,4.89
2022-12-06T20:25:06.244Z,4.82
2022-12-06T20:27:52.958Z,4.79
2022-12-06T20:30:23.986Z,4.78
2022-12-06T20:32:52.625Z,4.69
2022-12-06T20:35:22.547Z,4.57
2022-12-06T20:37:52.010Z,4.63
2022-12-06T20:40:20.607Z,4.60
2022-12-06T20:42:49.670Z,4.56
2022-12-06T20:45:20.389Z,4.55
2022-12-06T20:47:51.382Z,4.49
2022-12-06T20:50:22.252Z,4.38
2022-12-06T20:52:50.794Z,4.32
2022-12-06T20:55:19.292Z,4.33
2022-12-06T20:57:47.678Z,4.31
2022-12-06T21:00:17.525Z,4.24
2022-12-06T21:02:45.992Z,4.34
2022-12-06T21:05:14.450Z,4.30
2022-12-06T21:07:44.324Z,4.25
2022-12-06T21:10:13.382Z,4.35
2022-12-06T21:12:41.860Z,4.17
2022-12-06T21:15:11.452Z,4.22
2022-12-06T21:17:39.936Z,4.38
2022-12-06T21:20:09.871Z,4.22
2022-12-06T21:22:38.252Z,4.16
2022-12-06T21:25:09.256Z,4.11
2022-12-06T21:27:37.842Z,4.18
2022-12-06T21:30:07.966Z,4.32
2022-12-06T21:32:36.319Z,4.33
2022-12-06T21:35:05.704Z,4.34
2022-12-06T21:37:34.091Z,4.34
2022-12-06T21:40:02.757Z,4.46
2022-12-06T21:42:33.299Z,4.44
2022-12-06T21:45:01.704Z,4.56
2022-12-06T21:47:30.105Z,4.56
2022-12-06T21:49:58.713Z,4.59
2022-12-06T21:52:27.392Z,4.60
2022-12-06T21:54:56.508Z,4.53
2022-12-06T21:57:25.009Z,4.62
2022-12-06T21:59:54.774Z,4.57
2022-12-06T22:02:23.211Z,4.57
2022-12-06T22:04:51.636Z,4.52
2022-12-06T22:07:20.140Z,4.55
2022-12-06T22:09:48.850Z,4.45
2022-12-06T22:12:17.476Z,4.54
2022-12-06T22:14:45.986Z,4.55
2022-12-06T22:17:15.776Z,4.70
2022-12-06T22:19:44.280Z,4.61
2022-12-06T22:22:13.778Z,4.63
2022-12-06T22:24:42.201Z,4.64
2022-12-06T22:27:10.611Z,4.73
2022-12-06T22:29:40.661Z,4.68
2022-12-06T22:32:09.038Z,4.72
2022-12-06T22:34:38.769Z,4.64
2022-12-06T22:37:07.195Z,4.67
2022-12-06T22:39:35.606Z,4.73
2022-12-06T22:42:04.021Z,4.73
2022-12-06T22:44:32.419Z,4.59
2022-12-06T22:47:00.909Z,4.67
2022-12-06T22:49:29.852Z,4.58
2022-12-06T22:51:59.564Z,4.63
2022-12-06T22:54:28.149Z,4.67
2022-12-06T22:56:56.847Z,4.69
2022-12-06T22:59:25.758Z,4.74
2022-12-06T23:01:54.135Z,4.69
2022-12-06T23:04:22.616Z,4.73
2022-12-06T23:06:51.060Z,4.69
2022-12-06T23:09:20.969Z,4.59
2022-12-06T23:11:49.375Z,4.67
2022-12-06T23:14:17.741Z,4.58
2022-12-06T23:16:46.187Z,4.57
2022-12-06T23:19:14.639Z,4.60
2022-12-06T23:21:43.088Z,4.58
2022-12-06T23:24:14.365Z,4.59
2022-12-06T23:26:46.894Z,4.58
2022-12-06T23:29:16.490Z,4.59
2022-12-06T23:31:47.125Z,4.65
2022-12-06T23:34:22.867Z,4.67
2022-12-06T23:36:51.550Z,4.62
2022-12-06T23:39:20.447Z,4.65
2022-12-06T23:41:50.243Z,4.65
2022-12-06T23:44:19.077Z,4.56
2022-12-06T23:46:47.559Z,4.48
2022-12-06T23:49:19.017Z,4.48
2022-12-06T23:51:48.074Z,4.56
2022-12-06T23:54:18.799Z,4.57
2022-12-06T23:56:49.131Z,4.57
2022-12-06T23:59:18.925Z,4.51
